Huvudsida
METAR-TAF:

METAR-TAF

Flygplatser :

N'Djamena, Tchad

latitud: 12-08N, longitud: 015-02E, höjd: 295 m

Aktuellt väderrapport

Denna rapport gjordes för 1 timme och 14 minuter sedan, klockan 07:00 UTC
Vind 7 kt från syd/sydväst
Temperatur 31°C
Fuktighet 52%
Tryck 1011 hPa
Sikt 10 km eller mer
Inga moln under 1 500 m eller inga cumulonimbus

METAR: FTTJ 270700Z 20007KT CAVOK 31/20 Q1011 NOSIG

Tid: 09:14 (08:14 UTC)

Väderprognos

Denna rapport gjordes för 3 timmar och 9 minuter sedan, klockan 05:05 UTC
Prognos gäller från 27 kl. 06 UTC till 28 kl. 12 UTC
Vind 8 kt från syd
Sikt 10 km eller mer
Få moln på en höjd av 5000 ft, Cumulonimbus.
Blir
från 27 kl. 06 UTC till 27 kl. 08 UTC
Vind 10 kt från väst/sydväst
Temporärt
från 27 kl. 14 UTC till 27 kl. 19 UTC
Vind 15 kt varierande vindriktning i byarna ända upp till 25 kt
Sikt: 3000 m
åska, regn

TAF: FTTJ 270505Z 2706/2812 18008KT 9999 FEW050CB BECMG 2706/2708 24010KT TEMPO 2714/2719 VRB15G25KT 3000 TSRA

Aktuella väderrapporter och prognoser från 4000 flygplatser (METAR- och TAF-rapporter).

De tillgängliga stationerna syns som gula och röda prickar på kartan.

För musen över prickarna för att se namnen på stationerna.

Klicka sedan för att få väderrapporter och prognoser.

För att ändra kartan: Klicka på de gröna knapparna med ett svart kors på för att zooma in; den gröna knappen med ett streck på för att zooma ut; eller på de gröna pilarna för angränsande kartor.


METAR-TAF: